createdAt,value
2022-11-20T00:01:22.284Z,8.40
2022-11-20T00:06:18.654Z,6.33
2022-11-20T00:11:16.152Z,7.23
2022-11-20T00:16:13.885Z,8.53
2022-11-20T00:21:11.569Z,6.03
2022-11-20T00:26:06.321Z,7.27
2022-11-20T00:31:05.015Z,8.37
2022-11-20T00:36:03.854Z,6.87
2022-11-20T00:40:59.520Z,5.87
2022-11-20T00:45:53.250Z,5.93
2022-11-20T00:50:46.615Z,5.83
2022-11-20T00:55:41.991Z,6.50
2022-11-20T01:00:35.369Z,6.37
2022-11-20T01:05:28.888Z,6.70
2022-11-20T01:10:22.196Z,6.63
2022-11-20T01:15:17.113Z,6.43
2022-11-20T01:20:12.334Z,6.93
2022-11-20T01:25:06.620Z,6.50
2022-11-20T01:30:01.439Z,5.80
2022-11-20T01:34:56.304Z,6.23
2022-11-20T01:39:49.649Z,5.30
2022-11-20T01:44:56.706Z,8.07
2022-11-20T01:49:57.799Z,6.67
2022-11-20T01:55:02.377Z,6.93
2022-11-20T02:00:02.171Z,5.03
2022-11-20T02:05:06.546Z,5.33
2022-11-20T02:09:59.920Z,6.23
2022-11-20T02:14:53.405Z,6.70
2022-11-20T02:19:48.630Z,5.90
2022-11-20T02:24:47.415Z,3.93
2022-11-20T02:29:47.422Z,7.20
2022-11-20T02:34:40.743Z,4.20
2022-11-20T02:39:34.227Z,4.70
2022-11-20T02:44:28.935Z,5.40
2022-11-20T02:49:22.459Z,4.00
2022-11-20T02:54:16.020Z,4.10
2022-11-20T02:59:09.955Z,5.70
2022-11-20T03:04:05.223Z,5.20
2022-11-20T03:08:58.487Z,3.80
2022-11-20T03:13:51.855Z,4.57
2022-11-20T03:18:45.539Z,4.13
2022-11-20T03:23:41.218Z,4.93
2022-11-20T03:28:34.573Z,3.90
2022-11-20T03:33:30.554Z,3.93
2022-11-20T03:38:23.850Z,4.43
2022-11-20T03:43:18.558Z,4.00
2022-11-20T03:48:11.845Z,4.53
2022-11-20T03:53:05.111Z,5.53
2022-11-20T03:57:58.443Z,5.97
2022-11-20T04:02:53.122Z,5.10
2022-11-20T04:07:46.434Z,5.47
2022-11-20T04:12:39.705Z,5.87
2022-11-20T04:17:32.999Z,5.37
2022-11-20T04:22:27.712Z,4.87
2022-11-20T04:27:21.009Z,5.07
2022-11-20T04:32:14.287Z,6.30
2022-11-20T04:37:07.524Z,4.23
2022-11-20T04:42:19.636Z,3.73
2022-11-20T04:47:12.905Z,4.10
2022-11-20T04:52:06.272Z,3.83
2022-11-20T04:57:00.922Z,7.47
2022-11-20T05:01:54.274Z,3.67
2022-11-20T05:06:47.611Z,4.43
2022-11-20T05:11:40.986Z,4.00
2022-11-20T05:16:37.335Z,5.27
2022-11-20T05:21:33.373Z,5.50
2022-11-20T05:26:26.645Z,3.10
2022-11-20T05:31:27.151Z,4.73
2022-11-20T05:36:22.506Z,3.03
2022-11-20T05:41:18.721Z,3.67
2022-11-20T05:46:15.245Z,3.20
2022-11-20T05:51:12.402Z,3.77
2022-11-20T05:56:11.759Z,2.70
2022-11-20T06:01:15.851Z,4.40
2022-11-20T06:06:11.830Z,4.60
2022-11-20T06:11:11.897Z,3.63
2022-11-20T06:16:06.417Z,3.10
2022-11-20T06:21:05.676Z,3.50
2022-11-20T06:25:59.208Z,2.73
2022-11-20T06:30:53.826Z,3.70
2022-11-20T06:35:47.150Z,3.13
2022-11-20T06:40:45.514Z,3.00
2022-11-20T06:45:39.121Z,3.60
2022-11-20T06:50:33.791Z,3.73
2022-11-20T06:55:27.095Z,3.17
2022-11-20T07:00:20.632Z,3.67
2022-11-20T07:05:13.923Z,4.10
2022-11-20T07:10:10.214Z,4.00
2022-11-20T07:15:03.596Z,6.00
2022-11-20T07:19:56.985Z,3.57
2022-11-20T07:24:50.464Z,4.20
2022-11-20T07:29:45.096Z,3.27
2022-11-20T07:34:38.431Z,3.43
2022-11-20T07:39:31.734Z,3.30
2022-11-20T07:44:25.013Z,3.13
2022-11-20T07:49:19.989Z,3.57
2022-11-20T07:54:13.478Z,3.43
2022-11-20T07:59:06.750Z,4.40
2022-11-20T08:04:00.337Z,4.67
2022-11-20T08:08:55.057Z,3.73
2022-11-20T08:14:05.872Z,3.53
2022-11-20T08:18:59.276Z,2.17
2022-11-20T08:23:53.911Z,3.93
2022-11-20T08:28:47.767Z,3.23
2022-11-20T08:33:41.156Z,2.67
2022-11-20T08:38:35.223Z,3.80
2022-11-20T08:43:29.956Z,2.70
2022-11-20T08:48:23.508Z,3.07
2022-11-20T08:53:16.941Z,2.93
2022-11-20T08:58:11.356Z,3.17
2022-11-20T09:03:06.231Z,2.93
2022-11-20T09:08:01.426Z,2.50
2022-11-20T09:12:56.235Z,3.70
2022-11-20T09:17:54.309Z,2.90
2022-11-20T09:22:52.543Z,3.80
2022-11-20T09:27:47.137Z,3.13
2022-11-20T09:32:51.311Z,3.97
2022-11-20T09:37:44.679Z,3.53
2022-11-20T09:42:53.964Z,4.03
2022-11-20T09:48:13.478Z,2.20
2022-11-20T09:53:31.603Z,3.10
2022-11-20T09:58:36.622Z,2.20
2022-11-20T10:15:36.028Z,2.67
2022-11-20T10:21:17.437Z,1.60
2022-11-20T10:26:25.421Z,1.97
2022-11-20T10:31:34.341Z,1.60
2022-11-20T10:36:45.840Z,1.67
2022-11-20T10:41:48.363Z,6.00
2022-11-20T10:46:47.728Z,2.37
2022-11-20T10:51:56.583Z,1.40
2022-11-20T10:56:53.374Z,2.50
2022-11-20T11:01:51.588Z,1.60
2022-11-20T11:06:58.081Z,1.50
2022-11-20T11:12:04.263Z,1.40
2022-11-20T11:17:02.369Z,2.50
2022-11-20T11:21:58.654Z,3.07
2022-11-20T11:27:05.447Z,1.40
2022-11-20T11:32:14.438Z,1.73
2022-11-20T11:37:15.882Z,1.87
2022-11-20T11:42:18.524Z,2.97
2022-11-20T11:47:27.636Z,1.90
2022-11-20T11:52:26.419Z,1.67
2022-11-20T11:57:31.798Z,2.00
2022-11-20T12:02:40.101Z,2.90
2022-11-20T12:07:47.112Z,2.87
2022-11-20T12:12:47.408Z,1.67
2022-11-20T12:17:42.175Z,1.43
2022-11-20T12:22:52.675Z,2.90
2022-11-20T12:28:15.369Z,2.43
2022-11-20T12:33:47.981Z,1.37
2022-11-20T12:39:32.496Z,1.40
2022-11-20T12:45:11.437Z,2.27
2022-11-20T12:51:24.955Z,1.92
2022-11-20T12:56:39.250Z,1.60
2022-11-20T13:01:46.233Z,1.87
2022-11-20T13:06:43.412Z,4.27
2022-11-20T13:12:07.446Z,1.47
2022-11-20T13:17:07.962Z,1.40
2022-11-20T13:22:05.116Z,2.57
2022-11-20T13:27:32.907Z,3.20
2022-11-20T13:32:28.938Z,1.70
2022-11-20T13:37:36.267Z,2.40
2022-11-20T13:42:31.008Z,2.23
2022-11-20T13:47:27.507Z,1.20
2022-11-20T13:52:53.779Z,1.47
2022-11-20T13:58:09.987Z,2.30
2022-11-20T14:03:44.261Z,2.67
2022-11-20T14:08:46.618Z,2.07
2022-11-20T14:13:40.283Z,1.30
2022-11-20T14:18:33.992Z,1.83
2022-11-20T14:23:31.678Z,1.57
2022-11-20T14:28:46.918Z,1.47
2022-11-20T14:33:50.067Z,1.50
2022-11-20T14:38:55.524Z,4.37
2022-11-20T14:43:59.207Z,1.70
2022-11-20T14:48:57.408Z,1.67
2022-11-20T14:53:53.154Z,1.13
2022-11-20T14:58:59.604Z,4.10
2022-11-20T15:04:11.392Z,1.53
2022-11-20T15:09:10.774Z,1.77
2022-11-20T15:14:11.063Z,1.30
2022-11-20T15:19:18.907Z,1.30
2022-11-20T15:24:15.464Z,2.10
2022-11-20T15:29:13.758Z,1.50
2022-11-20T15:34:13.338Z,1.57
2022-11-20T15:39:08.148Z,2.10
2022-11-20T15:44:01.434Z,5.80
2022-11-20T15:48:59.378Z,5.93
2022-11-20T15:53:52.788Z,4.93
2022-11-20T15:58:46.189Z,4.87
2022-11-20T16:03:58.202Z,8.70
2022-11-20T16:08:51.612Z,17.90
2022-11-20T16:14:04.930Z,16.20
2022-11-20T16:19:00.993Z,7.73
2022-11-20T16:23:54.342Z,3.67
2022-11-20T16:28:48.072Z,5.03
2022-11-20T16:33:41.949Z,9.60
2022-11-20T16:38:36.992Z,3.73
2022-11-20T16:43:30.667Z,5.53
2022-11-20T16:48:24.131Z,3.40
2022-11-20T16:53:18.350Z,5.77
2022-11-20T16:58:18.120Z,7.43
2022-11-20T17:03:12.062Z,5.67
2022-11-20T17:08:06.208Z,34.67
2022-11-20T17:12:59.559Z,93.90
2022-11-20T17:17:54.269Z,42.40
2022-11-20T17:22:47.544Z,11.87
2022-11-20T17:27:41.186Z,6.80
2022-11-20T17:32:34.679Z,5.20
2022-11-20T17:37:29.423Z,5.20
2022-11-20T17:42:29.758Z,6.20
2022-11-20T17:47:23.251Z,5.77
2022-11-20T17:52:16.615Z,5.20
2022-11-20T17:57:29.191Z,3.97
2022-11-20T18:02:22.739Z,3.80
2022-11-20T18:07:16.082Z,5.87
2022-11-20T18:12:11.013Z,7.00
2022-11-20T18:17:08.047Z,5.83
2022-11-20T18:22:01.812Z,6.63
2022-11-20T18:26:55.339Z,4.73
2022-11-20T18:31:50.181Z,7.73
2022-11-20T18:36:45.366Z,11.13
2022-11-20T18:41:56.366Z,14.97
2022-11-20T18:46:52.083Z,10.27
2022-11-20T18:51:45.641Z,7.20
2022-11-20T18:56:39.400Z,6.10
2022-11-20T19:01:38.435Z,6.90
2022-11-20T19:06:33.530Z,4.50
2022-11-20T19:11:29.895Z,4.57
2022-11-20T19:16:24.911Z,4.83
2022-11-20T19:21:25.252Z,5.17
2022-11-20T19:26:27.227Z,4.97
2022-11-20T19:31:31.513Z,7.80
2022-11-20T19:36:28.795Z,5.70
2022-11-20T19:41:38.750Z,4.20
2022-11-20T19:46:44.821Z,4.17
2022-11-20T19:51:59.705Z,3.40
2022-11-20T19:56:55.027Z,3.70
2022-11-20T20:01:48.615Z,2.40
2022-11-20T20:06:45.789Z,2.03
2022-11-20T20:12:04.429Z,3.70
2022-11-20T20:16:59.338Z,2.70
2022-11-20T20:22:45.124Z,3.73
2022-11-20T20:27:42.592Z,4.17
2022-11-20T20:32:51.943Z,4.00
2022-11-20T20:37:55.017Z,2.43
2022-11-20T20:42:55.167Z,4.03
2022-11-20T20:47:56.002Z,2.13
2022-11-20T20:52:52.314Z,2.03
2022-11-20T20:58:08.420Z,1.40
2022-11-20T21:03:58.274Z,1.77
2022-11-20T21:08:55.969Z,3.40
2022-11-20T21:13:55.613Z,2.50
2022-11-20T21:18:54.359Z,2.43
2022-11-20T21:23:56.935Z,2.50
2022-11-20T21:29:03.687Z,2.90
2022-11-20T21:34:39.422Z,1.80
2022-11-20T21:39:52.974Z,2.10
2022-11-20T21:44:47.978Z,2.63
2022-11-20T21:49:42.980Z,2.23
2022-11-20T21:54:43.535Z,2.20
2022-11-20T21:59:38.814Z,1.60
2022-11-20T22:04:59.217Z,2.63
2022-11-20T22:09:52.794Z,1.80
2022-11-20T22:14:49.444Z,2.07
2022-11-20T22:19:44.685Z,1.93
2022-11-20T22:24:39.409Z,1.70
2022-11-20T22:29:33.184Z,1.87
2022-11-20T22:34:26.899Z,1.60
2022-11-20T22:39:31.000Z,1.83
2022-11-20T22:45:06.972Z,1.70
2022-11-20T22:50:27.880Z,1.50
2022-11-20T22:56:25.751Z,2.20
2022-11-20T23:01:29.001Z,1.57
2022-11-20T23:06:23.905Z,1.50
2022-11-20T23:11:20.600Z,1.50
2022-11-20T23:16:16.662Z,1.73
2022-11-20T23:21:15.012Z,1.33
2022-11-20T23:26:11.262Z,1.50
2022-11-20T23:31:15.272Z,2.57
2022-11-20T23:36:55.951Z,1.53
2022-11-20T23:41:49.696Z,1.40
2022-11-20T23:46:46.510Z,1.60
2022-11-20T23:51:51.354Z,2.30
